Time;durP1;ratioP1;P1;durP2;ratioP2;P2;SDS_P1;SDS_P2;PMS_P1;PMS_P2;Temp;Humidity;BMP_temperature;BMP_pressure;BME280_temperature;BME280_humidity;BME280_pressure;Samples;Min_cycle;Max_cycle;Signal;HPM_P1;HPM_P2
2021/08/24 00:00:28;;;;;;;3.42;2.78;;;19.00;94.30;;;;;;5036744;28;20036;-83
2021/08/24 00:02:55;;;;;;;4.00;2.72;;;19.00;94.30;;;;;;5037607;28;20029;-83
2021/08/24 00:05:28;;;;;;;3.03;2.70;;;18.90;94.40;;;;;;5037033;28;20493;-85
2021/08/24 00:07:56;;;;;;;3.33;2.65;;;18.90;94.50;;;;;;5037521;28;20473;-83
2021/08/24 00:10:43;;;;;;;2.88;2.40;;;18.80;94.50;;;;;;5037102;28;20029;-83
2021/08/24 00:13:08;;;;;;;4.63;2.70;;;18.70;94.60;;;;;;5036907;28;20455;-83
2021/08/24 00:15:34;;;;;;;3.92;2.58;;;18.70;94.70;;;;;;5036791;28;20021;-83
2021/08/24 00:18:01;;;;;;;4.72;2.60;;;18.70;94.80;;;;;;5037262;28;20032;-82
2021/08/24 00:20:31;;;;;;;4.68;2.55;;;18.60;94.90;;;;;;5036584;28;20067;-83
2021/08/24 00:23:03;;;;;;;4.47;2.60;;;18.60;95.00;;;;;;5054187;28;20032;-84
2021/08/24 00:25:29;;;;;;;5.15;2.75;;;18.60;95.10;;;;;;5054299;28;20037;-85
2021/08/24 00:27:54;;;;;;;4.40;2.90;;;18.50;95.30;;;;;;5037119;28;20108;-84
2021/08/24 00:30:20;;;;;;;5.45;3.08;;;18.50;95.30;;;;;;5036861;28;20029;-83
2021/08/24 00:32:46;;;;;;;6.63;3.00;;;18.50;95.30;;;;;;5036874;28;20029;-83
2021/08/24 00:35:11;;;;;;;4.03;2.80;;;18.40;95.40;;;;;;5036428;28;20095;-83
2021/08/24 00:37:37;;;;;;;5.65;2.60;;;18.40;95.50;;;;;;5036418;28;20405;-83
2021/08/24 00:40:05;;;;;;;2.78;2.40;;;18.40;95.50;;;;;;5036710;28;20428;-83
2021/08/24 00:42:31;;;;;;;6.32;2.60;;;18.40;95.70;;;;;;5036449;28;20079;-83
2021/08/24 00:44:56;;;;;;;3.70;2.65;;;18.40;95.70;;;;;;5054543;28;20033;-83
2021/08/24 00:47:25;;;;;;;5.50;3.03;;;18.40;95.70;;;;;;5036827;28;20519;-83
2021/08/24 00:50:05;;;;;;;3.17;2.60;;;18.50;95.60;;;;;;5054478;28;20017;-83
2021/08/24 00:52:31;;;;;;;4.93;2.60;;;18.50;95.40;;;;;;5036720;28;20021;-83
2021/08/24 00:54:57;;;;;;;3.58;2.70;;;18.60;95.50;;;;;;5054063;28;20060;-83
2021/08/24 00:57:24;;;;;;;4.75;2.75;;;18.50;95.30;;;;;;5036623;28;20082;-84
2021/08/24 00:59:51;;;;;;;3.55;2.80;;;18.50;95.20;;;;;;5036270;28;20036;-83
2021/08/24 01:02:18;;;;;;;5.40;3.00;;;18.50;95.20;;;;;;5036553;28;20021;-83
2021/08/24 01:04:46;;;;;;;4.18;2.60;;;18.50;95.10;;;;;;5053809;28;20183;-83
2021/08/24 01:07:41;;;;;;;3.72;2.58;;;18.50;95.20;;;;;;5036723;28;20495;-83
2021/08/24 01:10:20;;;;;;;5.30;2.70;;;18.50;95.30;;;;;;5036638;28;20021;-83
2021/08/24 01:12:51;;;;;;;3.10;2.28;;;18.50;95.20;;;;;;5036369;28;20036;-83
2021/08/24 01:15:22;;;;;;;3.03;2.50;;;18.50;95.00;;;;;;5036465;28;20112;-83
2021/08/24 01:18:17;;;;;;;3.03;2.50;;;18.50;95.00;;;;;;5036287;28;20033;-83
2021/08/24 01:21:03;;;;;;;4.57;2.50;;;18.40;94.70;;;;;;5035882;28;20030;-83
2021/08/24 01:23:40;;;;;;;2.45;2.22;;;18.30;94.60;;;;;;5036038;28;20102;-84
2021/08/24 01:26:27;;;;;;;2.72;2.25;;;18.40;94.50;;;;;;5033197;28;20471;-83
2021/08/24 01:28:59;;;;;;;3.25;2.10;;;18.40;94.50;;;;;;5036040;28;20056;-83
2021/08/24 01:31:46;;;;;;;2.92;2.10;;;18.30;94.40;;;;;;5054020;28;20021;-82
2021/08/24 01:34:52;;;;;;;2.15;1.85;;;18.20;94.40;;;;;;5036940;28;20040;-83
2021/08/24 01:37:34;;;;;;;6.85;2.20;;;18.20;94.40;;;;;;5040461;28;20035;-83
2021/08/24 01:40:11;;;;;;;2.80;2.00;;;18.10;94.30;;;;;;5040291;28;20029;-84
2021/08/24 01:42:37;;;;;;;3.20;1.63;;;18.20;94.20;;;;;;5057063;28;20033;-84
2021/08/24 01:45:16;;;;;;;2.20;1.95;;;18.00;94.30;;;;;;5057681;28;20025;-85
2021/08/24 01:47:42;;;;;;;2.58;1.80;;;18.00;94.30;;;;;;5039445;28;20384;-84
2021/08/24 01:50:19;;;;;;;4.50;2.03;;;18.00;94.40;;;;;;5040036;28;20021;-84
2021/08/24 01:52:49;;;;;;;3.97;2.05;;;17.90;94.50;;;;;;5039919;28;20063;-83
2021/08/24 01:55:23;;;;;;;3.22;2.20;;;17.90;94.40;;;;;;5057585;28;20516;-83
2021/08/24 01:58:18;;;;;;;3.25;2.00;;;17.90;94.50;;;;;;5039383;28;20087;-83
2021/08/24 02:00:52;;;;;;;4.30;2.17;;;17.80;94.60;;;;;;5018527;28;20040;-83
2021/08/24 02:03:23;;;;;;;3.22;2.20;;;17.70;94.70;;;;;;5039768;28;20054;-83
2021/08/24 02:05:54;;;;;;;3.78;1.90;;;17.70;94.80;;;;;;5039164;28;20175;-83
2021/08/24 02:08:24;;;;;;;2.70;2.00;;;17.70;94.80;;;;;;5039204;28;20533;-83
2021/08/24 02:10:54;;;;;;;3.72;2.10;;;17.70;95.00;;;;;;5056632;28;20021;-84
2021/08/24 02:13:22;;;;;;;2.75;2.10;;;17.70;94.70;;;;;;5039770;28;20040;-83
2021/08/24 02:15:53;;;;;;;5.35;2.17;;;17.60;94.80;;;;;;5038983;28;20036;-83
2021/08/24 02:18:26;;;;;;;4.53;1.90;;;17.70;94.80;;;;;;5039637;28;20028;-83
2021/08/24 02:21:05;;;;;;;2.95;1.85;;;17.60;94.80;;;;;;5056817;28;20044;-83
2021/08/24 02:23:32;;;;;;;2.63;2.10;;;17.50;94.80;;;;;;5038948;28;20131;-84
2021/08/24 02:26:06;;;;;;;2.33;1.92;;;17.50;94.90;;;;;;5039201;28;20156;-84
2021/08/24 02:28:35;;;;;;;2.72;2.10;;;17.50;94.90;;;;;;5038548;28;20113;-84
2021/08/24 02:31:16;;;;;;;3.08;2.60;;;17.40;95.00;;;;;;5056953;28;20032;-84
2021/08/24 02:33:53;;;;;;;2.97;1.90;;;17.40;95.00;;;;;;5039160;28;20029;-84
2021/08/24 02:36:20;;;;;;;5.13;2.10;;;17.30;95.00;;;;;;5056816;28;20124;-84
2021/08/24 02:38:57;;;;;;;3.47;2.50;;;17.30;95.00;;;;;;5038616;28;20107;-84
2021/08/24 02:41:33;;;;;;;2.53;2.03;;;17.30;94.90;;;;;;5019057;28;20034;-84
2021/08/24 02:44:22;;;;;;;2.88;1.90;;;17.30;95.00;;;;;;5035785;28;20083;-84
2021/08/24 02:46:53;;;;;;;4.18;2.35;;;17.30;94.90;;;;;;5035598;28;20363;-84
2021/08/24 02:49:24;;;;;;;4.60;2.40;;;17.20;94.90;;;;;;5019338;28;20034;-84
2021/08/24 02:51:51;;;;;;;5.15;2.05;;;17.20;94.90;;;;;;5036113;28;20037;-84
2021/08/24 02:54:26;;;;;;;2.75;2.20;;;17.10;95.10;;;;;;5037212;28;20029;-84
2021/08/24 02:56:52;;;;;;;2.60;2.13;;;17.10;95.10;;;;;;5036060;28;20112;-84
2021/08/24 02:59:18;;;;;;;4.72;2.70;;;17.10;95.10;;;;;;5018694;28;20056;-84
2021/08/24 03:01:44;;;;;;;4.65;2.55;;;17.10;95.00;;;;;;5037234;28;20032;-84
2021/08/24 03:04:10;;;;;;;4.47;2.28;;;17.00;95.10;;;;;;5037777;28;20036;-84
2021/08/24 03:06:40;;;;;;;8.27;2.47;;;17.00;95.10;;;;;;5038126;28;20052;-84
2021/08/24 03:09:08;;;;;;;2.90;2.20;;;17.00;95.20;;;;;;5038859;28;20087;-84
2021/08/24 03:12:00;;;;;;;2.70;2.28;;;16.90;95.30;;;;;;5038043;28;20476;-83
2021/08/24 03:14:35;;;;;;;4.03;2.50;;;16.90;95.40;;;;;;5025722;28;20469;-83
2021/08/24 03:17:09;;;;;;;3.85;2.22;;;16.90;95.30;;;;;;5038841;28;20033;-84
2021/08/24 03:19:36;;;;;;;3.40;2.60;;;16.80;95.30;;;;;;5055556;28;20033;-84
2021/08/24 03:22:04;;;;;;;4.10;3.08;;;16.80;95.30;;;;;;5038557;28;20131;-83
2021/08/24 03:24:32;;;;;;;2.90;2.40;;;16.70;95.30;;;;;;5037905;28;20045;-83
2021/08/24 03:26:58;;;;;;;2.47;2.22;;;16.70;95.40;;;;;;5055657;28;20029;-83
2021/08/24 03:29:24;;;;;;;3.40;2.58;;;16.70;95.40;;;;;;5038305;28;20075;-83
2021/08/24 03:31:56;;;;;;;3.22;2.40;;;16.70;95.40;;;;;;5037735;28;20029;-84
2021/08/24 03:34:23;;;;;;;3.20;2.15;;;16.70;95.50;;;;;;5038169;28;20035;-84
2021/08/24 03:36:48;;;;;;;4.28;2.78;;;16.70;95.60;;;;;;5037754;28;20029;-84
2021/08/24 03:39:14;;;;;;;3.92;2.70;;;16.60;95.60;;;;;;5038293;28;20481;-84
2021/08/24 03:41:40;;;;;;;3.53;2.40;;;16.60;95.50;;;;;;5037653;28;20054;-84
2021/08/24 03:44:06;;;;;;;4.20;2.50;;;16.60;95.50;;;;;;5037905;28;20075;-84
2021/08/24 03:46:32;;;;;;;4.10;2.50;;;16.50;95.50;;;;;;5037768;28;20486;-85
2021/08/24 03:48:57;;;;;;;5.18;3.10;;;16.50;95.60;;;;;;5037006;28;20028;-83
2021/08/24 03:51:23;;;;;;;4.80;2.75;;;16.60;95.70;;;;;;5037411;28;20424;-84
2021/08/24 03:53:49;;;;;;;5.00;2.70;;;16.50;95.70;;;;;;5037164;28;20029;-85
2021/08/24 03:56:14;;;;;;;5.10;2.63;;;16.40;95.80;;;;;;5037812;28;20437;-84
2021/08/24 03:58:40;;;;;;;3.85;2.70;;;16.50;95.90;;;;;;5053655;28;20108;-83
2021/08/24 04:01:17;;;;;;;3.65;2.65;;;16.30;96.10;;;;;;5054923;28;20070;-83
2021/08/24 04:03:43;;;;;;;3.75;2.63;;;16.40;96.10;;;;;;5036790;28;20128;-83
2021/08/24 04:06:09;;;;;;;5.05;2.75;;;16.40;96.10;;;;;;5054492;28;20056;-84
2021/08/24 04:08:36;;;;;;;3.88;3.03;;;16.30;96.10;;;;;;5037062;28;20079;-84
2021/08/24 04:11:03;;;;;;;4.05;3.28;;;16.30;96.10;;;;;;5036975;28;20025;-83
2021/08/24 04:13:29;;;;;;;4.55;3.05;;;16.30;96.20;;;;;;5037316;28;20033;-84
2021/08/24 04:15:55;;;;;;;4.57;2.75;;;16.30;96.20;;;;;;5036483;28;20036;-84
2021/08/24 04:18:20;;;;;;;4.38;3.33;;;16.20;96.20;;;;;;5036640;28;20029;-83
2021/08/24 04:20:46;;;;;;;4.78;2.90;;;16.20;96.30;;;;;;5036592;28;20036;-83
2021/08/24 04:23:16;;;;;;;4.47;3.22;;;16.20;96.40;;;;;;5037104;28;20037;-84
2021/08/24 04:25:42;;;;;;;7.07;3.63;;;16.20;96.40;;;;;;5016900;28;20049;-84
2021/08/24 04:28:08;;;;;;;5.25;3.10;;;16.20;96.30;;;;;;5035208;28;20025;-84
2021/08/24 04:30:35;;;;;;;5.40;3.25;;;16.20;96.40;;;;;;5054719;28;20032;-84
2021/08/24 04:33:01;;;;;;;5.82;3.42;;;16.10;96.40;;;;;;5036765;28;20036;-85
2021/08/24 04:35:27;;;;;;;6.00;3.40;;;16.10;96.40;;;;;;5054664;28;20025;-84
2021/08/24 04:37:52;;;;;;;4.30;3.13;;;16.00;96.40;;;;;;5054280;28;20369;-85
2021/08/24 04:40:18;;;;;;;5.28;3.65;;;16.00;96.50;;;;;;5054757;28;20388;-84
2021/08/24 04:42:43;;;;;;;5.80;2.95;;;16.00;96.50;;;;;;5053899;28;20025;-84
2021/08/24 04:45:10;;;;;;;4.88;3.28;;;16.00;96.40;;;;;;5036436;28;20028;-84
2021/08/24 04:47:36;;;;;;;7.30;3.17;;;16.00;96.40;;;;;;5054273;28;20462;-84
2021/08/24 04:50:01;;;;;;;5.90;3.88;;;16.00;96.30;;;;;;5036251;28;20075;-84
2021/08/24 04:52:27;;;;;;;4.95;3.40;;;16.00;96.40;;;;;;5036917;28;20445;-84
2021/08/24 04:54:53;;;;;;;5.00;3.38;;;16.00;96.40;;;;;;5053482;28;20430;-84
2021/08/24 04:57:18;;;;;;;6.88;3.85;;;16.00;96.60;;;;;;5054488;28;20033;-84
2021/08/24 04:59:44;;;;;;;8.50;3.88;;;15.90;96.90;;;;;;5036118;28;20025;-84
2021/08/24 05:02:10;;;;;;;7.97;3.85;;;15.90;97.20;;;;;;5054159;28;20036;-84
2021/08/24 05:04:35;;;;;;;5.70;3.17;;;15.90;97.20;;;;;;5053669;28;20025;-84
2021/08/24 05:07:01;;;;;;;8.48;3.80;;;15.90;97.20;;;;;;5036214;28;20040;-85
2021/08/24 05:09:27;;;;;;;5.03;3.95;;;15.90;97.40;;;;;;5036180;28;20025;-84
2021/08/24 05:11:53;;;;;;;10.90;4.38;;;15.90;97.50;;;;;;5035710;28;20028;-84
2021/08/24 05:14:18;;;;;;;5.07;3.13;;;15.90;97.50;;;;;;5035999;28;20033;-85
2021/08/24 05:16:44;;;;;;;7.22;4.10;;;15.90;97.50;;;;;;5035887;28;20025;-84
2021/08/24 05:19:09;;;;;;;5.05;3.50;;;16.00;97.40;;;;;;5036475;28;20461;-85
2021/08/24 05:21:36;;;;;;;4.63;3.45;;;16.00;97.30;;;;;;5036713;28;20462;-84
2021/08/24 05:24:03;;;;;;;4.55;3.30;;;16.00;97.20;;;;;;5035687;28;20044;-85
2021/08/24 05:26:29;;;;;;;3.75;2.95;;;16.00;97.10;;;;;;5035766;28;20454;-85
2021/08/24 05:28:55;;;;;;;6.78;3.10;;;16.00;96.90;;;;;;5053366;28;20100;-85
2021/08/24 05:31:20;;;;;;;7.45;3.35;;;16.00;96.90;;;;;;5035987;28;20208;-84
2021/08/24 05:33:46;;;;;;;7.10;3.63;;;16.00;96.90;;;;;;5035595;28;20036;-84
2021/08/24 05:36:12;;;;;;;4.70;3.50;;;16.00;96.80;;;;;;5035968;28;20045;-84
2021/08/24 05:38:38;;;;;;;4.78;3.30;;;16.00;96.90;;;;;;5036517;28;20025;-84
2021/08/24 05:41:05;;;;;;;4.47;3.05;;;15.90;96.80;;;;;;5035404;28;20041;-83
2021/08/24 05:43:31;;;;;;;7.57;4.70;;;15.90;96.90;;;;;;5036209;28;20097;-83
2021/08/24 05:46:04;;;;;;;6.15;4.00;;;15.90;97.00;;;;;;5035270;28;20032;-82
2021/08/24 05:48:31;;;;;;;5.95;4.40;;;16.00;97.00;;;;;;5035047;28;20029;-84
2021/08/24 05:50:56;;;;;;;8.10;4.30;;;16.00;97.00;;;;;;5043287;28;20025;-84
2021/08/24 05:53:23;;;;;;;9.52;4.30;;;16.10;97.00;;;;;;5033096;28;20037;-84
2021/08/24 05:55:49;;;;;;;7.85;4.47;;;16.10;97.00;;;;;;5051695;28;20057;-84
2021/08/24 05:58:14;;;;;;;8.80;5.25;;;16.20;96.90;;;;;;5035007;28;20485;-85
2021/08/24 06:00:41;;;;;;;8.18;5.63;;;16.30;97.00;;;;;;5035181;28;20382;-84
2021/08/24 06:03:07;;;;;;;12.75;7.05;;;16.30;96.80;;;;;;5035452;28;20033;-85
2021/08/24 06:05:41;;;;;;;8.77;6.07;;;16.30;97.10;;;;;;5035815;28;20082;-86
2021/08/24 06:08:07;;;;;;;13.48;8.02;;;16.20;97.10;;;;;;5031842;28;20059;-87
2021/08/24 06:10:37;;;;;;;14.65;7.93;;;16.30;97.20;;;;;;5034191;28;20045;-86
2021/08/24 06:13:04;;;;;;;11.13;7.25;;;16.30;97.20;;;;;;5052136;28;20525;-86
2021/08/24 06:15:30;;;;;;;12.02;7.68;;;16.30;97.30;;;;;;5034441;28;20115;-86
2021/08/24 06:17:56;;;;;;;15.18;7.22;;;16.40;97.20;;;;;;5052638;28;20025;-84
2021/08/24 06:20:22;;;;;;;11.82;7.55;;;16.40;97.20;;;;;;5036004;28;20564;-85
2021/08/24 06:22:47;;;;;;;12.20;7.45;;;16.40;97.10;;;;;;5038672;28;20059;-85
2021/08/24 06:25:15;;;;;;;10.85;7.10;;;16.50;97.20;;;;;;5039168;28;20033;-83
2021/08/24 06:27:41;;;;;;;13.52;7.55;;;16.50;97.00;;;;;;5038641;28;20492;-85
2021/08/24 06:30:07;;;;;;;11.05;7.40;;;16.50;96.90;;;;;;5038512;28;20021;-85
2021/08/24 06:32:37;;;;;;;13.68;7.00;;;16.60;96.80;;;;;;5038415;28;20504;-84
2021/08/24 06:35:03;;;;;;;11.52;6.72;;;16.60;96.30;;;;;;5049878;28;20055;-87
2021/08/24 06:37:30;;;;;;;9.90;6.82;;;16.70;96.10;;;;;;5048318;28;20043;-83
2021/08/24 06:39:56;;;;;;;10.80;6.70;;;16.70;96.00;;;;;;5035770;28;20017;-86
2021/08/24 06:42:22;;;;;;;10.88;6.85;;;16.70;96.00;;;;;;5054303;28;20025;-86
2021/08/24 06:44:47;;;;;;;9.70;6.55;;;16.80;96.20;;;;;;5054896;28;20039;-87
2021/08/24 06:47:13;;;;;;;10.07;6.38;;;16.80;96.00;;;;;;5037277;28;20024;-89
2021/08/24 06:49:39;;;;;;;9.57;6.28;;;16.80;95.90;;;;;;5054486;28;20448;-86
2021/08/24 06:52:05;;;;;;;11.90;6.28;;;16.70;95.80;;;;;;5036270;28;20119;-87
2021/08/24 06:54:32;;;;;;;8.20;5.55;;;16.70;95.90;;;;;;5036745;28;20565;-87
2021/08/24 06:56:58;;;;;;;10.77;6.93;;;16.60;95.90;;;;;;5035173;28;20025;-83
2021/08/24 06:59:24;;;;;;;9.38;5.78;;;16.60;96.00;;;;;;5026819;28;20086;-84
2021/08/24 07:01:50;;;;;;;10.32;5.93;;;16.60;96.10;;;;;;5052098;28;20044;-86
2021/08/24 07:04:16;;;;;;;8.43;5.10;;;16.60;96.10;;;;;;5038454;28;20037;-85
2021/08/24 07:06:47;;;;;;;10.80;5.40;;;16.50;96.00;;;;;;5038663;28;20052;-89
2021/08/24 07:09:14;;;;;;;7.20;5.20;;;16.60;95.90;;;;;;5037700;28;20458;-88
2021/08/24 07:11:39;;;;;;;7.57;5.05;;;16.60;95.90;;;;;;5037784;28;20037;-87
2021/08/24 07:14:05;;;;;;;7.72;5.00;;;16.50;95.90;;;;;;5037774;28;20480;-89
2021/08/24 07:16:31;;;;;;;6.85;4.55;;;16.50;95.80;;;;;;5038091;28;20082;-82
2021/08/24 07:18:58;;;;;;;5.63;4.28;;;16.50;95.70;;;;;;5036557;28;20029;-86
2021/08/24 07:21:25;;;;;;;5.93;4.10;;;16.50;95.60;;;;;;5055186;28;20033;-82
2021/08/24 07:23:52;;;;;;;4.80;3.67;;;16.50;95.20;;;;;;5035688;28;20478;-88
2021/08/24 07:26:19;;;;;;;6.38;3.63;;;16.50;94.90;;;;;;5037499;28;20033;-86
2021/08/24 07:28:45;;;;;;;6.47;3.47;;;16.50;94.90;;;;;;5054101;28;20100;-86
2021/08/24 07:31:12;;;;;;;4.53;3.33;;;16.50;94.90;;;;;;5037110;28;20064;-89
2021/08/24 07:33:38;;;;;;;6.93;3.67;;;16.60;94.80;;;;;;5036536;28;20033;-87
2021/08/24 07:36:04;;;;;;;10.13;3.80;;;16.60;94.80;;;;;;5036456;28;20386;-89
2021/08/24 07:38:30;;;;;;;5.85;3.25;;;16.60;94.70;;;;;;5035787;28;20512;-89
2021/08/24 07:40:55;;;;;;;5.05;2.70;;;16.70;94.60;;;;;;5036089;28;20071;-88
2021/08/24 07:43:22;;;;;;;5.32;2.60;;;16.70;94.30;;;;;;5036876;28;20044;-88
2021/08/24 07:45:50;;;;;;;5.30;2.63;;;16.80;94.30;;;;;;5034979;28;20048;-85
2021/08/24 07:48:17;;;;;;;5.30;2.38;;;16.80;94.30;;;;;;5037248;28;20023;-84
2021/08/24 07:50:43;;;;;;;5.10;2.13;;;16.80;94.10;;;;;;5036653;28;20029;-84
2021/08/24 07:53:10;;;;;;;2.58;1.85;;;16.90;93.20;;;;;;5037147;28;20473;-85
2021/08/24 07:55:35;;;;;;;2.30;1.85;;;16.90;93.20;;;;;;5056510;28;20077;-87
2021/08/24 07:58:03;;;;;;;3.17;1.90;;;17.00;93.10;;;;;;5037252;28;20063;-90
2021/08/24 08:00:28;;;;;;;4.05;1.70;;;17.00;93.10;;;;;;5036107;28;20140;-90
2021/08/24 08:02:54;;;;;;;3.75;1.73;;;17.00;92.90;;;;;;5035232;28;20514;-87
2021/08/24 08:05:20;;;;;;;1.98;1.27;;;17.00;92.20;;;;;;5034781;28;20024;-87
2021/08/24 08:07:46;;;;;;;2.20;1.73;;;17.00;92.10;;;;;;5052201;28;20458;-83
2021/08/24 08:10:12;;;;;;;2.67;1.55;;;17.00;92.10;;;;;;5036559;28;20052;-86
2021/08/24 08:12:38;;;;;;;2.85;1.30;;;17.00;91.50;;;;;;5036595;28;20103;-90
2021/08/24 08:15:06;;;;;;;2.80;1.15;;;17.00;91.10;;;;;;5036233;28;20142;-90
2021/08/24 08:17:32;;;;;;;2.17;1.25;;;17.00;90.80;;;;;;5036105;28;20025;-90
2021/08/24 08:19:57;;;;;;;2.30;1.40;;;17.00;91.30;;;;;;5036340;28;20555;-88
2021/08/24 08:22:23;;;;;;;3.72;1.10;;;17.00;91.00;;;;;;5036758;28;20075;-86
2021/08/24 08:24:49;;;;;;;2.67;1.20;;;17.10;91.00;;;;;;5053704;28;20080;-87
2021/08/24 08:27:14;;;;;;;2.55;1.02;;;17.10;90.70;;;;;;5035487;28;20056;-87
2021/08/24 08:29:40;;;;;;;2.20;1.13;;;17.10;90.60;;;;;;5035090;28;20040;-87
2021/08/24 08:32:10;;;;;;;2.42;1.38;;;17.20;90.50;;;;;;5051216;28;20032;-85
2021/08/24 08:34:37;;;;;;;2.97;1.50;;;17.20;90.10;;;;;;5048151;28;20024;-85
2021/08/24 08:37:04;;;;;;;2.20;1.33;;;17.30;91.00;;;;;;5020886;28;20115;-87
2021/08/24 08:39:29;;;;;;;1.52;1.25;;;17.30;91.20;;;;;;5035705;28;20086;-86
2021/08/24 08:42:12;;;;;;;2.58;1.20;;;17.30;91.10;;;;;;5053491;28;20021;-85
2021/08/24 08:44:52;;;;;;;1.83;1.40;;;17.40;91.10;;;;;;5035896;28;20552;-87
2021/08/24 08:47:55;;;;;;;2.10;1.27;;;17.40;90.40;;;;;;5036686;28;20033;-92
2021/08/24 08:50:25;;;;;;;2.80;1.13;;;17.50;90.70;;;;;;5036141;28;20072;-86
2021/08/24 08:53:05;;;;;;;2.03;1.33;;;17.50;91.30;;;;;;5053956;28;20029;-85
2021/08/24 08:56:08;;;;;;;4.05;1.20;;;17.60;90.30;;;;;;5036003;28;20049;-87
2021/08/24 08:58:53;;;;;;;3.22;1.40;;;17.60;90.70;;;;;;5030192;28;20116;-89
2021/08/24 09:02:00;;;;;;;3.83;1.30;;;17.70;90.80;;;;;;5034352;28;20029;-88
2021/08/24 09:04:36;;;;;;;3.63;1.55;;;17.80;90.00;;;;;;5018344;28;20126;-87
2021/08/24 09:07:07;;;;;;;3.72;1.40;;;17.90;90.50;;;;;;5035413;28;20162;-90
2021/08/24 09:09:33;;;;;;;3.60;1.20;;;18.00;90.00;;;;;;5036523;28;20056;-90
2021/08/24 09:12:00;;;;;;;1.70;1.10;;;18.00;90.30;;;;;;5049003;28;20289;-90
2021/08/24 09:14:44;;;;;;;4.35;1.25;;;18.10;90.20;;;;;;5036015;28;20029;-89
2021/08/24 09:17:16;;;;;;;1.40;1.17;;;18.00;87.80;;;;;;5035837;28;20043;-85
2021/08/24 09:19:54;;;;;;;;;;;18.00;87.60;;;;;;5053336;28;20033;-83
2021/08/24 09:22:20;;;;;;;1.60;1.17;;;18.10;88.70;;;;;;5036206;28;19904;-88
2021/08/24 09:24:47;;;;;;;2.45;1.17;;;18.10;89.10;;;;;;5035629;28;20052;-86
2021/08/24 09:27:40;;;;;;;2.33;0.93;;;18.10;88.90;;;;;;5035716;28;20112;-88
2021/08/24 09:30:07;;;;;;;1.90;1.13;;;18.10;90.00;;;;;;5035495;28;20021;-83
2021/08/24 09:32:33;;;;;;;1.33;1.20;;;18.10;89.50;;;;;;5052861;28;20041;-85
2021/08/24 09:35:10;;;;;;;1.65;1.40;;;18.10;89.60;;;;;;5052975;28;20432;-84
2021/08/24 09:37:39;;;;;;;1.52;1.05;;;18.20;90.40;;;;;;5035276;28;20440;-86
2021/08/24 09:40:08;;;;;;;2.95;0.98;;;18.10;89.40;;;;;;5034536;28;20052;-88
2021/08/24 09:42:47;;;;;;;2.25;1.55;;;18.20;88.20;;;;;;5035740;28;20079;-90
2021/08/24 09:45:18;;;;;;;2.55;0.98;;;18.20;87.10;;;;;;5034752;28;20121;-86
2021/08/24 09:48:08;;;;;;;2.13;0.95;;;18.20;86.10;;;;;;5053696;28;20467;-90
2021/08/24 09:50:44;;;;;;;2.85;1.25;;;18.40;87.10;;;;;;5035894;28;20087;-90
2021/08/24 09:53:34;;;;;;;2.40;1.27;;;18.50;87.50;;;;;;5035171;28;20090;-89
2021/08/24 09:56:04;;;;;;;2.97;1.10;;;18.60;85.50;;;;;;5034492;28;20135;-90
2021/08/24 09:58:43;;;;;;;3.13;1.20;;;18.60;85.50;;;;;;5039112;28;20029;-88
2021/08/24 10:01:13;;;;;;;2.88;1.30;;;18.80;85.90;;;;;;5038898;28;20381;-84
2021/08/24 10:04:07;;;;;;;1.80;0.93;;;18.90;86.10;;;;;;5056814;28;20033;-83
2021/08/24 10:06:38;;;;;;;2.28;1.20;;;19.00;84.50;;;;;;5032089;28;20033;-89
2021/08/24 10:09:25;;;;;;;2.35;1.15;;;19.10;86.70;;;;;;5038100;28;20347;-88
2021/08/24 10:11:51;;;;;;;2.03;1.10;;;19.20;85.10;;;;;;5021527;28;20083;-86
2021/08/24 10:14:25;;;;;;;2.60;1.27;;;19.40;83.40;;;;;;5019307;28;20029;-90
2021/08/24 10:16:57;;;;;;;2.55;1.10;;;19.40;84.00;;;;;;5018012;28;20029;-85
2021/08/24 10:19:25;;;;;;;;;;;19.50;82.50;;;;;;5051455;28;20401;-86
2021/08/24 10:21:59;;;;;;;2.28;0.98;;;19.60;81.40;;;;;;5037045;28;19995;-83
2021/08/24 10:24:30;;;;;;;2.85;1.25;;;19.70;82.90;;;;;;5055364;28;20041;-87
2021/08/24 10:27:00;;;;;;;1.25;1.10;;;19.80;82.70;;;;;;5037676;28;20388;-88
2021/08/24 10:29:30;;;;;;;2.50;1.10;;;19.90;82.70;;;;;;5038540;28;20029;-87
2021/08/24 10:32:02;;;;;;;2.83;1.27;;;19.90;81.30;;;;;;5038207;28;20052;-92
2021/08/24 10:34:42;;;;;;;1.52;1.10;;;20.10;82.70;;;;;;5035229;28;20025;-87
2021/08/24 10:37:32;;;;;;;2.42;1.30;;;20.20;83.00;;;;;;5055211;28;20035;-89
2021/08/24 10:40:07;;;;;;;2.97;1.17;;;20.20;80.50;;;;;;5036024;28;20033;-88
2021/08/24 10:42:33;;;;;;;1.15;0.98;;;20.20;81.30;;;;;;5053052;28;20028;-89
2021/08/24 10:45:26;;;;;;;2.63;1.30;;;20.30;81.10;;;;;;5036767;28;20029;-92
2021/08/24 10:48:04;;;;;;;2.55;1.10;;;20.50;80.70;;;;;;5037368;28;20086;-87
2021/08/24 10:51:04;;;;;;;2.58;1.50;;;20.50;80.40;;;;;;5053787;28;20104;-92
2021/08/24 10:53:41;;;;;;;2.22;1.20;;;20.60;81.30;;;;;;5038044;28;20398;-88
2021/08/24 10:56:20;;;;;;;1.52;1.02;;;20.60;80.30;;;;;;5037235;28;20064;-84
2021/08/24 10:59:05;;;;;;;1.55;1.25;;;20.70;80.90;;;;;;5055493;28;20033;-84
2021/08/24 11:01:53;;;;;;;1.55;1.20;;;20.80;79.50;;;;;;5037794;28;20029;-84
2021/08/24 11:04:24;;;;;;;1.63;1.30;;;20.80;78.70;;;;;;5035360;28;20030;-84
2021/08/24 11:06:52;;;;;;;2.85;1.30;;;20.80;79.40;;;;;;5017355;28;20026;-84
2021/08/24 11:09:35;;;;;;;1.80;1.20;;;20.70;78.70;;;;;;5030450;28;20033;-85
2021/08/24 11:12:21;;;;;;;2.30;1.02;;;20.80;79.70;;;;;;5037302;28;20033;-84
2021/08/24 11:15:11;;;;;;;5.10;1.35;;;20.90;78.50;;;;;;5036774;28;20041;-85
2021/08/24 11:17:59;;;;;;;2.25;1.40;;;20.90;79.40;;;;;;5037277;28;20036;-84
2021/08/24 11:20:39;;;;;;;1.85;1.17;;;20.90;79.30;;;;;;5037021;28;20132;-86
2021/08/24 11:23:17;;;;;;;2.53;1.17;;;20.80;78.80;;;;;;5035485;28;20045;-87
2021/08/24 11:25:45;;;;;;;3.47;1.45;;;20.80;80.10;;;;;;5037381;28;20029;-93
2021/08/24 11:28:49;;;;;;;4.65;1.20;;;21.00;80.80;;;;;;5054453;28;20246;-92
2021/08/24 11:31:53;;;;;;;1.73;1.17;;;21.00;80.50;;;;;;5037701;28;20057;-92
2021/08/24 11:34:26;;;;;;;2.25;1.23;;;21.20;80.70;;;;;;5004016;28;20074;-85
2021/08/24 11:37:20;;;;;;;3.45;1.42;;;21.20;80.20;;;;;;5054172;28;20021;-93
2021/08/24 11:39:56;;;;;;;2.00;1.45;;;21.20;80.50;;;;;;4999843;28;20041;-88
2021/08/24 11:42:31;;;;;;;2.13;1.30;;;21.30;80.30;;;;;;5035284;28;20029;-91
2021/08/24 11:44:59;;;;;;;3.35;1.65;;;21.20;80.00;;;;;;5035492;28;20478;-91
2021/08/24 11:47:40;;;;;;;1.60;1.50;;;21.30;80.60;;;;;;5035952;28;20044;-90
2021/08/24 11:50:39;;;;;;;6.00;1.50;;;21.30;80.30;;;;;;5053496;28;20028;-88
2021/08/24 11:53:12;;;;;;;1.67;1.33;;;21.20;79.40;;;;;;5029875;28;20052;-87
2021/08/24 11:55:40;;;;;;;3.13;1.60;;;21.30;80.20;;;;;;5046855;28;20070;-87
2021/08/24 11:58:15;;;;;;;2.33;1.50;;;21.30;80.70;;;;;;5021798;28;20025;-85
2021/08/24 12:00:48;;;;;;;2.22;1.60;;;21.30;79.80;;;;;;5033967;28;20030;-89
2021/08/24 12:03:20;;;;;;;2.65;1.65;;;21.40;80.50;;;;;;5032081;28;20033;-88
2021/08/24 12:06:13;;;;;;;2.42;1.42;;;21.50;80.70;;;;;;5031424;28;20013;-87
2021/08/24 12:08:48;;;;;;;2.50;1.70;;;21.50;79.80;;;;;;5032290;28;20025;-88
2021/08/24 12:11:17;;;;;;;2.92;1.60;;;21.50;79.50;;;;;;5027940;28;20406;-87
2021/08/24 12:13:49;;;;;;;3.45;1.40;;;21.50;79.50;;;;;;5033140;28;20056;-90
2021/08/24 12:16:20;;;;;;;;;;;21.50;79.30;;;;;;5034443;28;20029;-86
2021/08/24 12:18:48;;;;;;;3.50;1.77;;;21.60;79.60;;;;;;5014282;28;19909;-86
2021/08/24 12:21:29;;;;;;;3.70;1.60;;;21.50;79.90;;;;;;5032080;28;20034;-87
2021/08/24 12:23:57;;;;;;;2.30;1.52;;;21.30;79.40;;;;;;5034168;28;20506;-87
2021/08/24 12:26:32;;;;;;;3.28;1.85;;;21.20;79.40;;;;;;5031260;28;20041;-89
2021/08/24 12:29:03;;;;;;;2.60;1.42;;;21.20;80.30;;;;;;5032076;28;20033;-90
2021/08/24 12:31:44;;;;;;;2.92;1.42;;;21.20;80.70;;;;;;5032730;28;20063;-88
2021/08/24 12:34:29;;;;;;;;;;;21.30;80.00;;;;;;5032131;28;20041;-90
2021/08/24 12:36:55;;;;;;;2.45;1.42;;;21.40;80.60;;;;;;5012711;28;20402;-90
2021/08/24 12:40:05;;;;;;;2.25;1.70;;;21.40;80.30;;;;;;5013000;28;20029;-88
2021/08/24 12:42:32;;;;;;;2.33;1.70;;;21.30;79.80;;;;;;5011835;28;20025;-90
2021/08/24 12:45:00;;;;;;;2.85;1.70;;;21.20;80.00;;;;;;5031936;28;20378;-92
2021/08/24 12:47:32;;;;;;;3.95;1.80;;;21.10;80.40;;;;;;5032235;28;20043;-86
2021/08/24 12:49:59;;;;;;;4.70;1.80;;;21.10;80.60;;;;;;5031489;28;20451;-84
2021/08/24 12:52:49;;;;;;;2.40;1.90;;;21.00;81.20;;;;;;5032328;28;20033;-85
2021/08/24 12:55:37;;;;;;;2.78;1.67;;;21.00;80.80;;;;;;5039615;28;20049;-90
2021/08/24 12:58:19;;;;;;;3.63;1.80;;;20.90;81.10;;;;;;5053029;28;20025;-89
2021/08/24 13:01:13;;;;;;;3.05;1.70;;;20.90;81.60;;;;;;5037501;28;20036;-89
2021/08/24 13:03:55;;;;;;;2.88;1.70;;;21.00;82.00;;;;;;5035632;28;20033;-86
2021/08/24 13:06:27;;;;;;;2.22;1.33;;;21.00;81.00;;;;;;5037086;28;20029;-83
2021/08/24 13:09:22;;;;;;;3.00;1.63;;;20.90;80.40;;;;;;5035849;28;20028;-88
2021/08/24 13:12:11;;;;;;;2.47;1.70;;;21.00;79.90;;;;;;5024968;28;20029;-82